Time;durP1;ratioP1;P1;durP2;ratioP2;P2;SDS_P1;SDS_P2;PMS_P1;PMS_P2;Temp;Humidity;BMP_temperature;BMP_pressure;BME280_temperature;BME280_humidity;BME280_pressure;Samples;Min_cycle;Max_cycle;Signal;HPM_P1;HPM_P2
2021/08/31 00:02:44;;;;;;;26.03;14.77;;;12.10;99.90;;;;;;4397292;28;658784;-71
2021/08/31 00:05:32;;;;;;;22.43;14.03;;;12.00;99.90;;;;;;4425961;28;658831;-70
2021/08/31 00:08:20;;;;;;;27.23;16.83;;;12.00;99.90;;;;;;4410477;28;659573;-70
2021/08/31 00:11:09;;;;;;;21.60;15.18;;;12.00;99.90;;;;;;4410637;28;658931;-71
2021/08/31 00:13:58;;;;;;;23.27;15.20;;;12.00;99.90;;;;;;4429358;28;658959;-71
2021/08/31 00:16:47;;;;;;;22.53;15.33;;;11.90;99.90;;;;;;4430887;28;659338;-70
2021/08/31 00:19:36;;;;;;;26.33;15.63;;;12.00;99.90;;;;;;4406675;28;659150;-71
2021/08/31 00:22:25;;;;;;;22.13;15.13;;;12.00;99.90;;;;;;4411616;28;658431;-71
2021/08/31 00:25:14;;;;;;;23.67;16.00;;;12.00;99.90;;;;;;4411186;28;658921;-71
2021/08/31 00:28:03;;;;;;;19.10;11.90;;;12.00;99.90;;;;;;4418574;28;659136;-71
2021/08/31 00:30:53;;;;;;;24.47;15.27;;;12.00;99.90;;;;;;4429400;28;659111;-71
2021/08/31 00:33:41;;;;;;;23.60;15.50;;;11.90;99.90;;;;;;4406198;28;659041;-71
2021/08/31 00:36:34;;;;;;;24.43;14.93;;;11.90;99.90;;;;;;4407057;28;658821;-70
2021/08/31 00:39:21;;;;;;;22.53;14.67;;;11.90;99.90;;;;;;4409281;28;659570;-70
2021/08/31 00:42:09;;;;;;;24.60;15.87;;;11.90;99.90;;;;;;4400821;28;658882;-70
2021/08/31 00:44:56;;;;;;;24.83;16.13;;;11.90;99.90;;;;;;4419144;28;658670;-71
2021/08/31 00:47:45;;;;;;;22.37;13.83;;;11.90;99.90;;;;;;4388406;28;659260;-69
2021/08/31 00:50:34;;;;;;;19.50;13.43;;;11.90;99.90;;;;;;4410181;28;659334;-71
2021/08/31 00:53:27;;;;;;;24.80;14.17;;;12.00;99.90;;;;;;4426621;28;658532;-71
2021/08/31 00:56:17;;;;;;;32.93;16.13;;;11.90;99.90;;;;;;4402541;28;658640;-71
2021/08/31 00:59:07;;;;;;;24.90;15.30;;;12.00;99.90;;;;;;4399088;28;659368;-71
2021/08/31 01:01:55;;;;;;;23.42;15.15;;;12.00;99.90;;;;;;4405103;28;659160;-71
2021/08/31 01:04:43;;;;;;;25.70;15.37;;;12.00;99.90;;;;;;4409043;28;659337;-71
2021/08/31 01:07:32;;;;;;;30.37;16.53;;;12.00;99.90;;;;;;4422211;28;659265;-70
2021/08/31 01:10:22;;;;;;;24.58;15.57;;;12.00;99.90;;;;;;4409680;28;659132;-71
2021/08/31 01:13:09;;;;;;;26.60;15.77;;;12.00;99.90;;;;;;4402821;28;659354;-71
2021/08/31 01:15:57;;;;;;;24.93;16.27;;;12.00;99.90;;;;;;4415380;28;658401;-72
2021/08/31 01:18:45;;;;;;;26.57;16.63;;;12.00;99.90;;;;;;4429460;28;659134;-71
2021/08/31 01:21:32;;;;;;;24.03;16.10;;;12.00;99.90;;;;;;4410202;28;658937;-72
2021/08/31 01:24:20;;;;;;;27.30;15.23;;;12.00;99.90;;;;;;4428673;28;659334;-71
2021/08/31 01:27:10;;;;;;;26.40;17.47;;;12.00;99.90;;;;;;4402431;28;659034;-70
2021/08/31 01:29:58;;;;;;;28.50;16.27;;;12.00;99.90;;;;;;4397482;28;658679;-71
2021/08/31 01:32:45;;;;;;;25.17;16.33;;;12.00;99.90;;;;;;4412387;28;659387;-71
2021/08/31 01:35:33;;;;;;;22.67;14.17;;;12.00;99.90;;;;;;4389329;28;659121;-70
2021/08/31 01:38:21;;;;;;;27.87;14.87;;;12.00;99.90;;;;;;4409605;28;659868;-71
2021/08/31 01:41:08;;;;;;;21.23;13.93;;;12.00;99.90;;;;;;4390356;28;658933;-70
2021/08/31 01:43:57;;;;;;;28.63;14.40;;;12.00;99.90;;;;;;4410727;28;659426;-70
2021/08/31 01:46:45;;;;;;;23.80;14.00;;;12.00;99.90;;;;;;4370162;28;658898;-71
2021/08/31 01:49:32;;;;;;;25.33;15.13;;;12.10;99.90;;;;;;4394154;28;658683;-71
2021/08/31 01:52:20;;;;;;;26.30;14.67;;;12.00;99.90;;;;;;4414798;28;659464;-71
2021/08/31 01:55:08;;;;;;;23.47;14.80;;;12.00;99.90;;;;;;4390592;28;659340;-70
2021/08/31 01:57:56;;;;;;;25.03;14.63;;;12.00;99.90;;;;;;4410157;28;659127;-70
2021/08/31 02:00:45;;;;;;;23.53;14.90;;;12.10;99.90;;;;;;4384347;28;659521;-70
2021/08/31 02:03:33;;;;;;;26.13;15.23;;;12.10;99.90;;;;;;4395963;28;658570;-72
2021/08/31 02:06:22;;;;;;;24.93;14.93;;;12.10;99.90;;;;;;4411270;28;659918;-71
2021/08/31 02:09:11;;;;;;;22.17;12.80;;;12.00;99.90;;;;;;4383849;28;658845;-70
2021/08/31 02:12:00;;;;;;;25.70;13.63;;;12.00;99.90;;;;;;4382698;28;658869;-71
2021/08/31 02:14:49;;;;;;;24.20;14.13;;;12.10;99.90;;;;;;4391794;28;658828;-71
2021/08/31 02:17:41;;;;;;;26.37;15.20;;;12.10;99.90;;;;;;4414619;28;658105;-71
2021/08/31 02:20:30;;;;;;;21.23;12.73;;;12.10;99.90;;;;;;4367797;28;658899;-71
2021/08/31 02:23:19;;;;;;;26.75;15.80;;;12.10;99.90;;;;;;4386423;28;659149;-72
2021/08/31 02:26:10;;;;;;;31.20;16.37;;;12.00;99.90;;;;;;4396988;28;658295;-72
2021/08/31 02:29:00;;;;;;;23.70;14.17;;;12.10;99.90;;;;;;4392175;28;659583;-72
2021/08/31 02:31:49;;;;;;;33.33;17.20;;;12.10;99.90;;;;;;4386543;28;658687;-72
2021/08/31 02:34:40;;;;;;;25.48;14.23;;;12.00;99.90;;;;;;4393647;28;658986;-72
2021/08/31 02:37:27;;;;;;;29.83;16.13;;;12.00;99.90;;;;;;4384992;28;658669;-72
2021/08/31 02:40:15;;;;;;;28.37;15.50;;;12.00;99.90;;;;;;4406109;28;659222;-69
2021/08/31 02:43:02;;;;;;;29.57;15.60;;;11.90;99.90;;;;;;4391425;28;658493;-72
2021/08/31 02:45:50;;;;;;;28.87;15.40;;;12.00;99.90;;;;;;4404748;28;659011;-70
2021/08/31 02:48:38;;;;;;;25.43;15.10;;;12.00;99.90;;;;;;4384191;28;659039;-70
2021/08/31 02:51:27;;;;;;;26.17;14.63;;;11.90;99.90;;;;;;4409903;28;659445;-69
2021/08/31 02:54:14;;;;;;;20.27;11.80;;;11.90;99.90;;;;;;4390943;28;660953;-70
2021/08/31 02:57:02;;;;;;;25.60;15.77;;;11.90;99.90;;;;;;4413444;28;658564;-70
2021/08/31 02:59:49;;;;;;;24.83;13.93;;;11.90;99.90;;;;;;4389105;28;659990;-70
2021/08/31 03:02:37;;;;;;;26.67;15.40;;;11.90;99.90;;;;;;4413527;28;659189;-70
2021/08/31 03:05:24;;;;;;;25.47;14.93;;;11.90;99.90;;;;;;4387190;28;660357;-70
2021/08/31 03:08:14;;;;;;;24.53;14.50;;;11.90;99.90;;;;;;4411040;28;658945;-71
2021/08/31 03:11:01;;;;;;;21.50;13.27;;;11.90;99.90;;;;;;4417575;28;658363;-70
2021/08/31 03:13:49;;;;;;;24.57;14.37;;;11.90;99.90;;;;;;4389935;28;658805;-70
2021/08/31 03:16:37;;;;;;;20.20;11.40;;;11.90;99.90;;;;;;4405799;28;658970;-71
2021/08/31 03:19:25;;;;;;;20.90;12.93;;;11.90;99.90;;;;;;4389874;28;658487;-70
2021/08/31 03:22:12;;;;;;;23.15;13.30;;;11.90;99.90;;;;;;4392703;28;658718;-70
2021/08/31 03:25:01;;;;;;;19.50;11.87;;;11.90;99.90;;;;;;4410189;28;659432;-69
2021/08/31 03:27:49;;;;;;;16.83;10.70;;;11.90;99.90;;;;;;4397266;28;659870;-70
2021/08/31 03:30:37;;;;;;;19.30;11.93;;;12.00;99.90;;;;;;4430278;28;658592;-71
2021/08/31 03:33:24;;;;;;;16.40;10.87;;;12.00;99.90;;;;;;4402805;28;660008;-70
2021/08/31 03:36:12;;;;;;;17.67;10.83;;;12.00;99.90;;;;;;4429420;28;658677;-71
2021/08/31 03:38:59;;;;;;;18.90;10.47;;;11.90;99.90;;;;;;4407305;28;659450;-71
2021/08/31 03:41:48;;;;;;;18.23;11.67;;;12.00;99.90;;;;;;4434146;28;658090;-70
2021/08/31 03:44:36;;;;;;;17.77;11.83;;;12.00;99.90;;;;;;4411259;28;659080;-71
2021/08/31 03:47:23;;;;;;;17.50;11.37;;;12.00;99.90;;;;;;4405146;28;658900;-70
2021/08/31 03:50:11;;;;;;;18.60;12.07;;;12.00;99.90;;;;;;4426361;28;658843;-70
2021/08/31 03:52:59;;;;;;;18.77;11.43;;;11.90;99.90;;;;;;4411915;28;659321;-70
2021/08/31 03:55:46;;;;;;;16.53;10.13;;;12.00;99.90;;;;;;4424253;28;658886;-70
2021/08/31 03:58:35;;;;;;;18.97;11.93;;;11.90;99.90;;;;;;4399247;28;659249;-70
2021/08/31 04:01:23;;;;;;;21.60;12.77;;;12.00;99.90;;;;;;4411409;28;658572;-71
2021/08/31 04:04:11;;;;;;;24.27;14.33;;;12.00;99.90;;;;;;4429986;28;659313;-70
2021/08/31 04:06:58;;;;;;;25.13;14.13;;;11.90;99.90;;;;;;4410084;28;658946;-69
2021/08/31 04:09:46;;;;;;;24.77;14.67;;;11.90;99.90;;;;;;4430381;28;659207;-68
2021/08/31 04:12:33;;;;;;;26.33;15.85;;;12.00;99.90;;;;;;4411077;28;658378;-69
2021/08/31 04:15:22;;;;;;;29.87;17.37;;;11.90;99.90;;;;;;4427935;28;658748;-69
2021/08/31 04:18:10;;;;;;;27.93;17.13;;;11.90;99.90;;;;;;4407140;28;659496;-69
2021/08/31 04:20:58;;;;;;;26.07;15.57;;;12.00;99.90;;;;;;4406724;28;658695;-70
2021/08/31 04:23:45;;;;;;;28.13;17.53;;;12.00;99.90;;;;;;4433697;28;659497;-70
2021/08/31 04:26:33;;;;;;;24.43;14.60;;;12.00;99.90;;;;;;4407918;28;658559;-72
2021/08/31 04:29:20;;;;;;;25.73;16.07;;;11.90;99.90;;;;;;4398326;28;659793;-69
2021/08/31 04:32:31;;;;;;;23.93;12.17;;;11.90;99.90;;;;;;4385124;28;658628;-69
2021/08/31 04:35:18;;;;;;;27.27;15.30;;;11.90;99.90;;;;;;4393048;28;658794;-71
2021/08/31 04:38:49;;;;;;;28.00;16.80;;;11.90;99.90;;;;;;4414899;28;658599;-69
2021/08/31 04:41:37;;;;;;;23.07;12.93;;;11.90;99.90;;;;;;4392512;28;659051;-69
2021/08/31 04:44:24;;;;;;;22.57;13.87;;;11.90;99.90;;;;;;4388821;28;659523;-70
2021/08/31 04:47:14;;;;;;;26.13;15.83;;;11.90;99.90;;;;;;4411200;28;658336;-71
2021/08/31 04:50:04;;;;;;;19.47;12.27;;;11.90;99.90;;;;;;4398814;28;658771;-72
2021/08/31 04:52:52;;;;;;;24.20;14.40;;;11.90;99.90;;;;;;4407421;28;659038;-71
2021/08/31 04:55:40;;;;;;;26.23;14.17;;;12.00;99.90;;;;;;4411228;28;659194;-71
2021/08/31 04:58:28;;;;;;;23.60;14.10;;;12.00;99.90;;;;;;4392153;28;659278;-71
2021/08/31 05:01:15;;;;;;;22.57;13.37;;;12.00;99.90;;;;;;4411773;28;659822;-71
2021/08/31 05:04:03;;;;;;;24.20;13.70;;;12.00;99.90;;;;;;4389553;28;658502;-72
2021/08/31 05:06:52;;;;;;;19.07;11.07;;;12.00;99.90;;;;;;4411793;28;659453;-71
2021/08/31 05:09:41;;;;;;;23.00;12.73;;;12.00;99.90;;;;;;4387073;28;659082;-71
2021/08/31 05:12:28;;;;;;;18.50;11.00;;;12.00;99.90;;;;;;4390849;28;658782;-71
2021/08/31 05:15:16;;;;;;;19.67;10.33;;;12.00;99.90;;;;;;4411706;28;658713;-71
2021/08/31 05:18:04;;;;;;;16.67;10.63;;;12.10;99.90;;;;;;4380450;28;658838;-72
2021/08/31 05:20:51;;;;;;;14.77;9.43;;;12.10;99.90;;;;;;4410285;28;658766;-71
2021/08/31 05:23:40;;;;;;;13.30;9.30;;;12.10;99.90;;;;;;4387544;28;658762;-71
2021/08/31 05:26:28;;;;;;;15.80;10.33;;;12.10;99.90;;;;;;4392469;28;658382;-72
2021/08/31 05:29:16;;;;;;;13.13;8.03;;;12.10;99.90;;;;;;4421441;28;659343;-71
2021/08/31 05:32:03;;;;;;;13.70;8.60;;;12.10;99.90;;;;;;4401082;28;658288;-71
2021/08/31 05:34:51;;;;;;;17.80;10.37;;;12.10;99.90;;;;;;4419621;28;657378;-71
2021/08/31 05:37:39;;;;;;;12.37;7.70;;;12.10;99.90;;;;;;4402366;28;658556;-70
2021/08/31 05:40:28;;;;;;;10.37;6.60;;;12.20;99.90;;;;;;4428750;28;658293;-70
2021/08/31 05:43:15;;;;;;;15.27;10.00;;;12.20;99.90;;;;;;4410851;28;658626;-70
2021/08/31 05:46:03;;;;;;;16.47;9.43;;;12.20;99.90;;;;;;4403645;28;659119;-71
2021/08/31 05:48:50;;;;;;;12.48;7.93;;;12.20;99.90;;;;;;4433510;28;658425;-71
2021/08/31 05:51:38;;;;;;;14.37;9.00;;;12.20;99.90;;;;;;4403332;28;658353;-70
2021/08/31 05:54:26;;;;;;;10.27;6.67;;;12.20;99.90;;;;;;4429593;28;657572;-70
2021/08/31 05:57:15;;;;;;;10.83;5.87;;;12.20;99.90;;;;;;4408100;28;658106;-69
2021/08/31 06:00:03;;;;;;;13.73;9.17;;;12.20;99.90;;;;;;4409957;28;657849;-71
2021/08/31 06:02:50;;;;;;;21.07;12.70;;;12.20;99.90;;;;;;4429772;28;658419;-70
2021/08/31 06:05:38;;;;;;;21.47;13.40;;;12.20;99.90;;;;;;4408639;28;658757;-71
2021/08/31 06:08:30;;;;;;;20.27;13.10;;;12.20;99.90;;;;;;4432696;28;658213;-70
2021/08/31 06:11:18;;;;;;;21.30;11.53;;;12.20;99.90;;;;;;4387008;28;658975;-70
2021/08/31 06:14:08;;;;;;;15.10;10.73;;;12.20;99.90;;;;;;4431459;28;658572;-70
2021/08/31 06:16:55;;;;;;;17.10;10.53;;;12.20;99.90;;;;;;4403369;28;659597;-70
2021/08/31 06:19:43;;;;;;;20.30;11.40;;;12.20;99.90;;;;;;4409267;28;658890;-71
2021/08/31 06:22:31;;;;;;;20.63;12.33;;;12.30;99.90;;;;;;4427888;28;660051;-70
2021/08/31 06:25:18;;;;;;;21.13;12.17;;;12.30;99.90;;;;;;4410551;28;658887;-71
2021/08/31 06:28:06;;;;;;;16.27;10.27;;;12.30;99.90;;;;;;4429275;28;659567;-70
2021/08/31 06:30:55;;;;;;;18.73;11.77;;;12.30;99.90;;;;;;4409378;28;659416;-71
2021/08/31 06:33:45;;;;;;;18.97;11.13;;;12.30;99.90;;;;;;4407941;28;658737;-71
2021/08/31 06:36:33;;;;;;;19.87;11.80;;;12.30;99.90;;;;;;4410829;28;658615;-71
2021/08/31 06:39:20;;;;;;;20.27;11.70;;;12.40;99.90;;;;;;4433969;28;659723;-71
2021/08/31 06:42:08;;;;;;;23.43;13.00;;;12.40;99.90;;;;;;4406486;28;658473;-71
2021/08/31 06:44:56;;;;;;;23.93;14.40;;;12.40;99.90;;;;;;4431680;28;659446;-70
2021/08/31 06:47:45;;;;;;;26.00;15.30;;;12.50;99.90;;;;;;4412970;28;658467;-71
2021/08/31 06:50:32;;;;;;;35.10;17.10;;;12.50;99.90;;;;;;4413789;28;658416;-72
2021/08/31 06:53:20;;;;;;;28.87;16.67;;;12.50;99.90;;;;;;4434224;28;659698;-71
2021/08/31 06:56:08;;;;;;;30.97;17.90;;;12.50;99.90;;;;;;4410077;28;658612;-72
2021/08/31 06:58:55;;;;;;;27.07;16.33;;;12.50;99.90;;;;;;4434783;28;660277;-71
2021/08/31 07:01:43;;;;;;;28.97;16.67;;;12.50;99.90;;;;;;4412233;28;658621;-71
2021/08/31 07:04:32;;;;;;;23.57;12.23;;;12.50;99.90;;;;;;4424414;28;659196;-71
2021/08/31 07:07:20;;;;;;;34.10;17.20;;;12.50;99.90;;;;;;4411299;28;659067;-71
2021/08/31 07:10:08;;;;;;;27.00;16.60;;;12.50;99.90;;;;;;4412341;28;658868;-71
2021/08/31 07:12:56;;;;;;;26.80;16.37;;;12.50;99.90;;;;;;4431027;28;659059;-71
2021/08/31 07:15:44;;;;;;;27.20;16.90;;;12.50;99.90;;;;;;4410114;28;659272;-71
2021/08/31 07:18:31;;;;;;;32.17;18.10;;;12.60;99.90;;;;;;4431882;28;658682;-71
2021/08/31 07:21:21;;;;;;;25.80;14.40;;;12.60;99.90;;;;;;4405345;28;658383;-72
2021/08/31 07:24:08;;;;;;;19.70;13.33;;;12.60;99.90;;;;;;4410218;28;659050;-72
2021/08/31 07:26:56;;;;;;;19.27;11.83;;;12.60;99.90;;;;;;4429102;28;658362;-71
2021/08/31 07:29:44;;;;;;;19.90;12.37;;;12.60;99.90;;;;;;4405337;28;658536;-72
2021/08/31 07:32:31;;;;;;;18.70;12.23;;;12.60;99.90;;;;;;4424078;28;658697;-71
2021/08/31 07:35:19;;;;;;;18.80;12.57;;;12.60;99.90;;;;;;4410146;28;658621;-71
2021/08/31 07:38:08;;;;;;;22.17;12.53;;;12.60;99.90;;;;;;4431048;28;658934;-72
2021/08/31 07:40:55;;;;;;;19.43;12.30;;;12.60;99.90;;;;;;4411389;28;658988;-71
2021/08/31 07:43:44;;;;;;;18.37;10.23;;;12.60;99.90;;;;;;4403807;28;659840;-73
2021/08/31 07:46:33;;;;;;;13.80;9.37;;;12.60;99.90;;;;;;4423824;28;659531;-72
2021/08/31 07:49:20;;;;;;;12.47;9.27;;;12.70;99.90;;;;;;4430024;28;657849;-72
2021/08/31 07:52:08;;;;;;;15.63;9.00;;;12.70;99.90;;;;;;4411627;28;657647;-72
2021/08/31 07:54:58;;;;;;;12.63;7.80;;;12.70;99.90;;;;;;4425508;28;658845;-71
2021/08/31 07:57:46;;;;;;;8.33;5.90;;;12.70;99.90;;;;;;4408582;28;657997;-71
2021/08/31 08:00:34;;;;;;;10.83;6.87;;;12.70;99.90;;;;;;4413152;28;656608;-72
2021/08/31 08:03:22;;;;;;;9.33;6.80;;;12.70;99.90;;;;;;4423046;28;657669;-74
2021/08/31 08:06:10;;;;;;;11.57;7.37;;;12.70;99.90;;;;;;4432898;28;657265;-72
2021/08/31 08:08:58;;;;;;;8.97;6.10;;;12.70;99.90;;;;;;4412357;28;657628;-72
2021/08/31 08:11:47;;;;;;;10.97;5.63;;;12.70;99.90;;;;;;4432892;28;657089;-71
2021/08/31 08:14:34;;;;;;;7.17;5.10;;;12.80;99.90;;;;;;4408338;28;658562;-71
2021/08/31 08:17:23;;;;;;;10.63;6.80;;;12.80;99.90;;;;;;4430440;28;656269;-73
2021/08/31 08:20:11;;;;;;;9.30;6.53;;;12.90;99.90;;;;;;4432223;28;658649;-71
2021/08/31 08:22:59;;;;;;;7.67;5.30;;;12.90;99.90;;;;;;4412834;28;656719;-71
2021/08/31 08:25:47;;;;;;;8.23;5.90;;;13.00;99.90;;;;;;4429566;28;656566;-71
2021/08/31 08:28:36;;;;;;;6.87;5.07;;;13.00;99.90;;;;;;4407235;28;657608;-72
2021/08/31 08:31:24;;;;;;;5.30;4.03;;;13.10;99.90;;;;;;4409320;28;657660;-72
2021/08/31 08:34:12;;;;;;;8.13;5.73;;;13.20;99.90;;;;;;4436087;28;656050;-72
2021/08/31 08:36:59;;;;;;;7.17;5.20;;;13.20;99.90;;;;;;4413373;28;656944;-71
2021/08/31 08:39:47;;;;;;;6.07;4.93;;;13.40;99.90;;;;;;4421473;28;658175;-72
2021/08/31 08:42:35;;;;;;;5.60;4.53;;;13.50;99.90;;;;;;4435477;28;657493;-71
2021/08/31 08:45:24;;;;;;;6.00;3.80;;;13.50;99.90;;;;;;4405135;28;657249;-71
2021/08/31 08:48:18;;;;;;;4.93;4.00;;;13.50;99.90;;;;;;4431311;28;656563;-72
2021/08/31 08:51:06;;;;;;;8.20;4.97;;;13.60;99.90;;;;;;4412644;28;656454;-72
2021/08/31 08:53:54;;;;;;;7.10;4.23;;;13.70;99.90;;;;;;4412093;28;657195;-72
2021/08/31 08:56:41;;;;;;;4.57;3.73;;;13.70;99.90;;;;;;4430797;28;656908;-72
2021/08/31 08:59:29;;;;;;;3.13;2.63;;;13.70;99.90;;;;;;4403096;28;657426;-71
2021/08/31 09:05:12;;;;;;;4.10;3.10;;;13.70;99.90;;;;;;4906642;27;131218;-71
2021/08/31 09:08:04;;;;;;;3.80;2.60;;;13.90;99.90;;;;;;4381966;27;651535;-71
2021/08/31 09:10:52;;;;;;;3.03;2.73;;;14.00;99.90;;;;;;4366937;27;650604;-70
2021/08/31 09:13:40;;;;;;;3.53;2.80;;;14.00;99.90;;;;;;4399894;27;652248;-70
2021/08/31 09:16:29;;;;;;;2.35;2.13;;;14.00;99.90;;;;;;4464453;27;650392;-70
2021/08/31 09:19:16;;;;;;;2.23;2.00;;;14.10;99.90;;;;;;4479494;27;650496;-70
2021/08/31 09:22:16;;;;;;;3.33;2.30;;;14.00;99.90;;;;;;4482325;27;651801;-70
2021/08/31 09:25:07;;;;;;;2.60;2.40;;;13.90;99.90;;;;;;4396642;27;651315;-70
2021/08/31 09:27:55;;;;;;;5.77;3.43;;;13.90;99.90;;;;;;4402868;27;652277;-70
2021/08/31 09:30:42;;;;;;;4.47;3.40;;;14.00;99.90;;;;;;4386305;28;651742;-71
2021/08/31 09:33:31;;;;;;;3.47;3.03;;;14.00;99.90;;;;;;4411208;27;653510;-70
2021/08/31 09:36:19;;;;;;;6.30;3.77;;;14.20;99.90;;;;;;4411477;27;652594;-70
2021/08/31 09:39:10;;;;;;;6.67;4.17;;;14.10;99.90;;;;;;4433771;27;652522;-70
2021/08/31 09:41:57;;;;;;;6.53;4.83;;;14.00;99.90;;;;;;4380763;27;653548;-71
2021/08/31 09:44:45;;;;;;;9.13;5.10;;;14.00;99.90;;;;;;4420159;27;653237;-70
2021/08/31 09:47:35;;;;;;;5.97;5.20;;;14.00;99.90;;;;;;4380620;28;652955;-70
2021/08/31 09:50:31;;;;;;;7.63;5.70;;;14.00;99.90;;;;;;4392044;28;652466;-70
2021/08/31 09:53:19;;;;;;;6.77;5.43;;;14.00;99.90;;;;;;4345877;28;653367;-70
2021/08/31 09:56:09;;;;;;;6.77;5.30;;;14.10;99.90;;;;;;4415574;28;652488;-70
2021/08/31 09:58:56;;;;;;;6.43;5.03;;;14.20;99.90;;;;;;4375653;28;653570;-70
2021/08/31 10:01:44;;;;;;;5.93;5.03;;;14.20;99.90;;;;;;4393047;28;652731;-70
2021/08/31 10:04:32;;;;;;;7.90;5.53;;;14.30;99.90;;;;;;4405530;28;652801;-70
2021/08/31 10:07:21;;;;;;;8.63;5.43;;;14.40;99.90;;;;;;4400211;28;653359;-71
2021/08/31 10:10:09;;;;;;;6.47;5.13;;;14.60;99.90;;;;;;4364482;28;653614;-70
2021/08/31 10:12:59;;;;;;;7.60;5.37;;;14.90;99.90;;;;;;4394483;28;653535;-70
2021/08/31 10:15:48;;;;;;;5.43;4.70;;;15.00;99.90;;;;;;4360466;28;652281;-70
2021/08/31 10:18:35;;;;;;;5.67;4.70;;;15.00;99.90;;;;;;4376867;28;653468;-70
2021/08/31 10:21:23;;;;;;;5.97;5.23;;;15.10;99.90;;;;;;4372112;28;652513;-70
2021/08/31 10:24:11;;;;;;;6.43;4.73;;;15.10;99.90;;;;;;4395742;28;652963;-70
2021/08/31 10:26:58;;;;;;;5.63;4.33;;;15.10;99.90;;;;;;4378852;28;652339;-70
2021/08/31 10:29:47;;;;;;;5.47;4.13;;;15.30;99.90;;;;;;4374540;28;653113;-70
2021/08/31 10:32:35;;;;;;;5.10;4.10;;;15.30;99.90;;;;;;4375716;28;653227;-70
2021/08/31 10:35:53;;;;;;;9.27;4.50;;;15.50;99.90;;;;;;4378914;28;652100;-70
2021/08/31 10:38:55;;;;;;;5.33;4.10;;;15.60;99.90;;;;;;4364174;28;652933;-70
2021/08/31 10:41:49;;;;;;;5.27;4.37;;;15.50;99.90;;;;;;4334607;28;652463;-70
2021/08/31 10:44:45;;;;;;;6.87;4.80;;;15.40;99.90;;;;;;4375423;28;652773;-70
2021/08/31 10:47:34;;;;;;;6.57;4.18;;;15.50;99.90;;;;;;4355398;28;653165;-70
2021/08/31 10:50:24;;;;;;;4.43;3.67;;;15.70;99.90;;;;;;4385089;28;652477;-70
2021/08/31 10:53:12;;;;;;;5.17;3.93;;;15.80;99.90;;;;;;4400570;28;653108;-70
2021/08/31 10:55:59;;;;;;;4.00;3.30;;;15.90;99.90;;;;;;4362018;28;653393;-70
2021/08/31 10:58:51;;;;;;;5.17;3.60;;;15.90;99.90;;;;;;4392201;28;652324;-70
2021/08/31 11:01:40;;;;;;;6.43;3.63;;;15.80;99.90;;;;;;4372247;28;653373;-70
2021/08/31 11:04:29;;;;;;;3.70;3.03;;;15.60;99.90;;;;;;4380267;28;652661;-70
2021/08/31 11:07:17;;;;;;;4.47;2.87;;;15.40;99.90;;;;;;4369819;28;652712;-70
2021/08/31 11:10:05;;;;;;;4.33;3.00;;;15.30;99.90;;;;;;4400904;28;651856;-70
2021/08/31 11:12:53;;;;;;;4.70;3.20;;;15.20;99.90;;;;;;4375238;28;652351;-70
2021/08/31 11:15:41;;;;;;;4.70;3.80;;;15.20;99.90;;;;;;4399385;28;653576;-71
2021/08/31 11:18:35;;;;;;;4.50;2.70;;;15.10;99.90;;;;;;4372368;28;652362;-70
2021/08/31 11:21:24;;;;;;;4.23;3.37;;;15.00;99.90;;;;;;4356896;28;652592;-70
2021/08/31 11:24:12;;;;;;;3.57;2.90;;;15.00;99.90;;;;;;4396621;28;652440;-70
2021/08/31 11:27:01;;;;;;;4.13;3.13;;;14.90;99.90;;;;;;4372711;28;652827;-70
2021/08/31 11:29:57;;;;;;;4.60;3.13;;;14.90;99.90;;;;;;4362975;28;652550;-71
2021/08/31 11:32:44;;;;;;;3.47;2.65;;;14.90;99.90;;;;;;4364770;28;652852;-70
2021/08/31 11:35:32;;;;;;;3.43;2.60;;;14.90;99.90;;;;;;4383740;28;652630;-70
2021/08/31 11:38:30;;;;;;;8.47;2.60;;;14.90;99.90;;;;;;4394841;28;654393;-70
2021/08/31 11:41:19;;;;;;;5.33;2.93;;;14.90;99.90;;;;;;4344864;28;653378;-70
2021/08/31 11:44:11;;;;;;;8.80;3.70;;;14.80;99.90;;;;;;4394466;28;653085;-70
2021/08/31 11:46:59;;;;;;;5.00;3.60;;;14.80;99.90;;;;;;4375324;28;653345;-70
2021/08/31 11:49:46;;;;;;;7.63;4.13;;;14.80;99.90;;;;;;4391386;28;652660;-70
2021/08/31 11:52:34;;;;;;;7.83;4.97;;;14.80;99.90;;;;;;4378689;28;653208;-70
2021/08/31 11:55:26;;;;;;;8.30;4.83;;;14.80;99.90;;;;;;4383610;28;653112;-70
2021/08/31 11:58:14;;;;;;;9.67;5.73;;;14.80;99.90;;;;;;4335879;28;654693;-70
2021/08/31 12:01:02;;;;;;;7.50;5.43;;;14.80;99.90;;;;;;4376447;28;653898;-70
2021/08/31 12:03:49;;;;;;;10.63;6.43;;;14.70;99.90;;;;;;4366631;28;654612;-70
2021/08/31 12:06:37;;;;;;;9.47;6.47;;;14.70;99.90;;;;;;4381727;28;654319;-70
2021/08/31 12:09:49;;;;;;;15.87;6.23;;;14.70;99.90;;;;;;4374434;28;654798;-70
2021/08/31 12:12:39;;;;;;;8.80;4.87;;;14.70;99.90;;;;;;4377098;28;654590;-71
2021/08/31 12:15:28;;;;;;;7.80;4.77;;;14.70;99.90;;;;;;4379669;28;653545;-70
2021/08/31 12:18:17;;;;;;;5.97;4.23;;;14.70;99.90;;;;;;4386355;28;655220;-70
2021/08/31 12:21:15;;;;;;;6.63;4.80;;;14.70;99.90;;;;;;4372386;28;654729;-70
2021/08/31 12:24:11;;;;;;;5.97;4.80;;;14.80;99.90;;;;;;4356757;28;653727;-70
2021/08/31 12:27:07;;;;;;;8.97;4.63;;;14.90;99.90;;;;;;4379780;28;653466;-70
2021/08/31 12:29:56;;;;;;;6.28;4.50;;;14.90;99.90;;;;;;4344879;28;654062;-70
2021/08/31 12:32:44;;;;;;;4.67;3.70;;;14.90;99.90;;;;;;4366571;28;653423;-70
2021/08/31 12:35:35;;;;;;;5.37;3.60;;;14.90;99.90;;;;;;4381966;28;653524;-70
2021/08/31 12:38:25;;;;;;;9.57;4.43;;;14.80;99.90;;;;;;4349159;28;653756;-70
2021/08/31 12:41:21;;;;;;;8.23;4.50;;;14.80;99.90;;;;;;4387424;28;653336;-70
2021/08/31 12:44:15;;;;;;;8.00;4.27;;;14.80;99.90;;;;;;4343196;28;653970;-70
2021/08/31 12:47:10;;;;;;;8.47;4.20;;;14.80;99.90;;;;;;4344097;28;653283;-70
2021/08/31 12:50:07;;;;;;;9.10;3.73;;;14.80;99.90;;;;;;4338216;28;653613;-70
2021/08/31 12:53:05;;;;;;;9.17;3.20;;;14.80;99.90;;;;;;4362314;28;654262;-70
2021/08/31 12:56:02;;;;;;;7.00;3.13;;;14.80;99.90;;;;;;4338636;28;653134;-70
2021/08/31 12:58:52;;;;;;;7.97;2.40;;;14.70;99.90;;;;;;4358148;28;654021;-70
2021/08/31 13:01:54;;;;;;;4.40;1.80;;;14.70;99.90;;;;;;4358612;28;654885;-70
2021/08/31 13:04:45;;;;;;;6.20;2.00;;;14.70;99.90;;;;;;4349200;28;653870;-70
2021/08/31 13:07:33;;;;;;;2.87;1.50;;;14.70;99.90;;;;;;4362351;28;653809;-70
2021/08/31 13:10:20;;;;;;;3.23;1.80;;;14.70;99.90;;;;;;4382899;28;653514;-70
2021/08/31 13:13:08;;;;;;;2.88;1.50;;;14.80;99.90;;;;;;4358856;28;653634;-70
2021/08/31 13:15:56;;;;;;;3.77;1.40;;;14.90;99.90;;;;;;4379921;28;654311;-70
2021/08/31 13:18:43;;;;;;;2.87;1.70;;;14.90;99.90;;;;;;4361589;28;653829;-70
2021/08/31 13:21:32;;;;;;;3.73;1.80;;;14.90;99.90;;;;;;4380052;28;654389;-70
2021/08/31 13:24:20;;;;;;;2.87;1.90;;;15.00;99.90;;;;;;4355799;28;654123;-70
2021/08/31 13:27:08;;;;;;;4.47;2.40;;;15.00;99.90;;;;;;4361427;28;653190;-70
2021/08/31 13:29:56;;;;;;;4.87;2.40;;;15.00;99.90;;;;;;4364266;28;654778;-70
2021/08/31 13:32:43;;;;;;;3.83;2.00;;;15.00;99.90;;;;;;4343577;28;654179;-70
2021/08/31 13:35:31;;;;;;;3.70;2.10;;;14.90;99.90;;;;;;4363105;28;654265;-70
2021/08/31 13:38:20;;;;;;;5.72;2.20;;;14.90;99.90;;;;;;4364096;28;653630;-70
2021/08/31 13:41:07;;;;;;;4.33;2.23;;;15.00;99.90;;;;;;4343830;28;653679;-70
2021/08/31 13:43:55;;;;;;;3.87;2.10;;;15.10;99.90;;;;;;4366026;28;654647;-70
2021/08/31 13:46:42;;;;;;;4.50;1.80;;;15.20;99.90;;;;;;4358790;28;653420;-70
2021/08/31 13:49:30;;;;;;;3.43;1.83;;;15.40;99.90;;;;;;4382080;28;655145;-70
2021/08/31 13:52:18;;;;;;;2.40;1.70;;;15.30;99.90;;;;;;4363471;28;654534;-70
2021/08/31 13:55:07;;;;;;;2.73;1.63;;;15.20;99.90;;;;;;4383369;28;655242;-70
2021/08/31 13:57:55;;;;;;;5.57;2.00;;;15.20;99.90;;;;;;4362815;28;654676;-70
2021/08/31 14:00:42;;;;;;;3.90;2.00;;;15.20;99.90;;;;;;4364947;28;654879;-70
2021/08/31 14:03:30;;;;;;;3.63;1.80;;;15.30;99.90;;;;;;4381605;28;656239;-70
2021/08/31 14:06:17;;;;;;;3.03;1.70;;;15.30;99.90;;;;;;4362783;28;654506;-70
2021/08/31 14:09:05;;;;;;;4.07;2.27;;;15.30;99.90;;;;;;4385325;28;655016;-70
2021/08/31 14:11:54;;;;;;;2.90;1.87;;;15.20;99.90;;;;;;4362739;28;654509;-70
2021/08/31 14:14:41;;;;;;;5.47;1.80;;;15.30;99.90;;;;;;4380911;28;654518;-70
2021/08/31 14:17:29;;;;;;;3.80;1.90;;;15.20;99.90;;;;;;4362520;28;655080;-70
2021/08/31 14:20:17;;;;;;;4.10;2.20;;;15.20;99.90;;;;;;4380752;28;655281;-70